Time;durP1;ratioP1;P1;durP2;ratioP2;P2;SDS_P1;SDS_P2;PMS_P1;PMS_P2;Temp;Humidity;BMP_temperature;BMP_pressure;BME280_temperature;BME280_humidity;BME280_pressure;Samples;Min_cycle;Max_cycle;Signal;HPM_P1;HPM_P2
2022/06/22 00:02:23;;;;;;;1.20;1.10;;;13.20;99.90;;;;;;5084628;28;20491;-52
2022/06/22 00:04:56;;;;;;;1.33;1.00;;;13.20;99.90;;;;;;5079471;28;20484;-52
2022/06/22 00:07:26;;;;;;;2.10;1.20;;;13.10;99.90;;;;;;5086053;28;20456;-52
2022/06/22 00:09:55;;;;;;;1.10;1.10;;;13.20;99.90;;;;;;5082160;28;20540;-51
2022/06/22 00:12:24;;;;;;;1.10;1.00;;;13.20;99.90;;;;;;5086285;28;20496;-53
2022/06/22 00:14:53;;;;;;;2.53;1.23;;;13.10;99.90;;;;;;5093987;28;20488;-52
2022/06/22 00:17:23;;;;;;;1.70;1.57;;;13.10;99.90;;;;;;5086516;28;20507;-53
2022/06/22 00:19:50;;;;;;;2.40;1.43;;;13.10;99.90;;;;;;5090543;28;21022;-52
2022/06/22 00:22:24;;;;;;;2.03;1.37;;;13.00;99.90;;;;;;5090259;28;20567;-52
2022/06/22 00:24:56;;;;;;;1.37;1.27;;;13.00;99.90;;;;;;5089603;28;20463;-52
2022/06/22 00:27:30;;;;;;;8.83;1.10;;;13.00;99.90;;;;;;5084761;28;20492;-52
2022/06/22 00:30:19;;;;;;;5.20;1.33;;;13.00;99.90;;;;;;5090641;28;20490;-52
2022/06/22 00:33:01;;;;;;;2.00;1.43;;;12.90;99.90;;;;;;5082357;28;20461;-52
2022/06/22 00:35:51;;;;;;;2.40;1.37;;;12.90;99.90;;;;;;5083802;28;20505;-52
2022/06/22 00:38:22;;;;;;;2.93;1.10;;;12.90;99.90;;;;;;5082357;28;20479;-52
2022/06/22 00:40:55;;;;;;;3.20;1.30;;;12.90;99.90;;;;;;5081923;28;20908;-52
2022/06/22 00:43:26;;;;;;;3.03;1.00;;;12.90;99.90;;;;;;5088225;28;20452;-52
2022/06/22 00:45:53;;;;;;;4.83;1.30;;;12.90;99.90;;;;;;5086482;28;20511;-52
2022/06/22 00:48:27;;;;;;;3.63;1.77;;;13.00;99.90;;;;;;5090588;28;20484;-52
2022/06/22 00:50:59;;;;;;;2.60;1.40;;;12.90;99.90;;;;;;5083960;28;20563;-53
2022/06/22 00:53:34;;;;;;;3.07;1.30;;;12.90;99.90;;;;;;5079361;28;21030;-53
2022/06/22 00:56:08;;;;;;;4.77;1.60;;;12.80;99.90;;;;;;5085034;28;20459;-52
2022/06/22 00:58:40;;;;;;;2.20;1.40;;;12.80;99.90;;;;;;5088197;28;20870;-53
2022/06/22 01:01:13;;;;;;;2.90;1.17;;;12.80;99.90;;;;;;5084828;28;20486;-53
2022/06/22 01:03:47;;;;;;;2.20;1.37;;;12.70;99.90;;;;;;5080629;28;20518;-54
2022/06/22 01:06:18;;;;;;;3.30;1.43;;;12.70;99.90;;;;;;5077863;28;20465;-54
2022/06/22 01:08:51;;;;;;;1.60;1.20;;;12.60;99.90;;;;;;5088200;28;20957;-54
2022/06/22 01:14:16;;;;;;;1.10;1.03;;;12.50;99.90;;;;;;5081578;28;20451;-51
2022/06/22 01:16:46;;;;;;;1.60;1.40;;;12.40;99.90;;;;;;5083343;28;20492;-51
2022/06/22 01:19:23;;;;;;;1.40;1.30;;;12.50;99.90;;;;;;5084167;28;20520;-53
2022/06/22 01:21:55;;;;;;;1.83;1.60;;;12.30;99.90;;;;;;5074464;28;21109;-51
2022/06/22 01:24:30;;;;;;;6.73;1.23;;;12.30;99.90;;;;;;5083151;28;20455;-52
2022/06/22 01:27:24;;;;;;;1.40;1.30;;;12.40;99.90;;;;;;5087496;28;20451;-52
2022/06/22 01:29:52;;;;;;;2.83;1.30;;;12.30;99.90;;;;;;5078006;28;20538;-51
2022/06/22 01:32:23;;;;;;;1.63;1.53;;;12.30;99.90;;;;;;5084718;28;20885;-51
2022/06/22 01:34:51;;;;;;;2.90;1.30;;;12.30;99.90;;;;;;5085829;28;20452;-51
2022/06/22 01:37:21;;;;;;;1.80;1.30;;;12.20;99.90;;;;;;5082535;28;20494;-50
2022/06/22 01:39:49;;;;;;;1.47;1.33;;;12.30;99.90;;;;;;5087784;28;20541;-51
2022/06/22 01:42:22;;;;;;;1.40;1.30;;;12.30;99.90;;;;;;5086172;28;20460;-51
2022/06/22 01:44:55;;;;;;;4.00;1.73;;;12.30;99.90;;;;;;5086444;28;20545;-51
2022/06/22 01:47:30;;;;;;;4.40;1.60;;;12.20;99.90;;;;;;5087257;28;20513;-51
2022/06/22 01:50:07;;;;;;;1.27;1.17;;;12.20;99.90;;;;;;5084419;28;20542;-53
2022/06/22 01:52:45;;;;;;;12.10;1.80;;;12.10;99.90;;;;;;5089423;28;20460;-52
2022/06/22 01:55:21;;;;;;;2.87;1.33;;;12.00;99.90;;;;;;5085355;28;20474;-52
2022/06/22 01:57:56;;;;;;;1.80;1.40;;;12.00;99.90;;;;;;5087192;28;20539;-52
2022/06/22 02:00:25;;;;;;;9.70;1.50;;;12.00;99.90;;;;;;5080449;28;20864;-52
2022/06/22 02:02:57;;;;;;;1.50;1.40;;;11.90;99.90;;;;;;5084391;28;20457;-52
2022/06/22 02:05:28;;;;;;;1.83;1.33;;;11.90;99.90;;;;;;5078140;28;20457;-52
2022/06/22 02:08:10;;;;;;;2.40;1.87;;;11.90;99.90;;;;;;5090928;28;20448;-52
2022/06/22 02:10:43;;;;;;;1.73;1.63;;;11.90;99.90;;;;;;5085330;28;20475;-52
2022/06/22 02:13:22;;;;;;;1.53;1.43;;;11.90;99.90;;;;;;5081886;28;20457;-52
2022/06/22 02:15:57;;;;;;;1.43;1.27;;;11.90;99.90;;;;;;5082281;28;20459;-51
2022/06/22 02:18:30;;;;;;;1.40;1.30;;;11.80;99.90;;;;;;5085302;28;20549;-53
2022/06/22 02:21:00;;;;;;;3.37;1.60;;;11.80;99.90;;;;;;5082608;28;20512;-51
2022/06/22 02:23:32;;;;;;;1.77;1.30;;;11.80;99.90;;;;;;5082239;28;20968;-52
2022/06/22 02:26:15;;;;;;;4.23;2.10;;;11.80;99.90;;;;;;5087275;28;20551;-52
2022/06/22 02:28:44;;;;;;;2.07;1.50;;;11.80;99.90;;;;;;5078786;28;20451;-51
2022/06/22 02:31:13;;;;;;;5.30;1.43;;;11.70;99.90;;;;;;5080825;28;20989;-51
2022/06/22 02:33:47;;;;;;;1.63;1.53;;;11.70;99.90;;;;;;5090238;28;20466;-51
2022/06/22 02:36:14;;;;;;;3.60;1.50;;;11.70;99.90;;;;;;5088930;28;20491;-52
2022/06/22 02:38:43;;;;;;;8.37;2.57;;;11.70;99.90;;;;;;5087888;28;20476;-51
2022/06/22 02:46:45;;;;;;;4.33;2.10;;;11.70;99.90;;;;;;5084538;28;20467;-52
2022/06/22 02:49:17;;;;;;;2.23;1.60;;;11.70;99.90;;;;;;5077577;28;20452;-52
2022/06/22 02:51:47;;;;;;;4.00;2.00;;;11.70;99.90;;;;;;5081771;28;20485;-52
2022/06/22 02:54:26;;;;;;;2.83;1.50;;;11.60;99.90;;;;;;5084539;28;21018;-51
2022/06/22 02:57:02;;;;;;;1.80;1.40;;;11.50;99.90;;;;;;5094007;28;20508;-52
2022/06/22 02:59:29;;;;;;;6.67;2.00;;;11.50;99.90;;;;;;5083433;28;20479;-51
2022/06/22 03:01:58;;;;;;;7.20;1.70;;;11.40;99.90;;;;;;5084360;28;20480;-51
2022/06/22 03:04:25;;;;;;;3.43;1.50;;;11.40;99.90;;;;;;5084599;28;20872;-51
2022/06/22 03:06:53;;;;;;;1.60;1.50;;;11.30;99.90;;;;;;5081955;28;20877;-51
2022/06/22 03:09:21;;;;;;;2.17;1.97;;;11.30;99.90;;;;;;5084658;28;20870;-52
2022/06/22 03:11:52;;;;;;;2.43;1.97;;;11.30;99.90;;;;;;5090336;28;20456;-52
2022/06/22 03:14:22;;;;;;;1.67;1.50;;;11.40;99.90;;;;;;5089604;28;20504;-52
2022/06/22 03:16:54;;;;;;;2.60;1.73;;;11.30;99.90;;;;;;5086936;28;20946;-52
2022/06/22 03:19:27;;;;;;;2.90;1.80;;;11.30;99.90;;;;;;5085128;28;20510;-52
2022/06/22 03:21:55;;;;;;;1.60;1.60;;;11.30;99.90;;;;;;5089382;28;20459;-52
2022/06/22 03:24:37;;;;;;;1.90;1.60;;;11.30;99.90;;;;;;5088095;28;20465;-51
2022/06/22 03:27:10;;;;;;;1.97;1.77;;;11.40;99.90;;;;;;5087912;28;20456;-52
2022/06/22 03:29:40;;;;;;;1.47;1.37;;;11.30;99.90;;;;;;5081824;28;20475;-51
2022/06/22 03:32:14;;;;;;;10.23;1.90;;;11.30;99.90;;;;;;5082642;28;20449;-51
2022/06/22 03:34:45;;;;;;;1.73;1.40;;;11.30;99.90;;;;;;5084734;28;20483;-51
2022/06/22 03:37:17;;;;;;;10.83;2.70;;;11.50;99.90;;;;;;5088537;28;20505;-52
2022/06/22 03:39:49;;;;;;;1.97;1.80;;;11.50;99.90;;;;;;5083299;28;20970;-53
2022/06/22 03:42:21;;;;;;;3.67;1.77;;;11.50;99.90;;;;;;5080851;28;20498;-52
2022/06/22 03:44:53;;;;;;;4.03;1.90;;;11.50;99.90;;;;;;5082469;28;20886;-51
2022/06/22 03:47:25;;;;;;;3.67;1.60;;;11.60;99.90;;;;;;5078588;28;20886;-53
2022/06/22 03:49:57;;;;;;;2.97;2.03;;;11.60;99.90;;;;;;5086376;28;20482;-51
2022/06/22 03:52:31;;;;;;;4.07;1.40;;;11.60;99.90;;;;;;5086414;28;20506;-53
2022/06/22 03:55:02;;;;;;;4.10;2.10;;;11.60;99.90;;;;;;5084607;28;20244;-53
2022/06/22 03:57:33;;;;;;;2.53;1.60;;;11.60;99.90;;;;;;5083510;28;20518;-54
2022/06/22 04:00:00;;;;;;;2.70;2.10;;;11.60;99.90;;;;;;5078883;28;20496;-53
2022/06/22 04:02:27;;;;;;;1.70;1.60;;;11.70;99.90;;;;;;5083688;28;20465;-53
2022/06/22 04:04:57;;;;;;;4.93;1.63;;;11.70;99.90;;;;;;5083087;28;20514;-53
2022/06/22 04:07:26;;;;;;;1.90;1.73;;;11.80;99.90;;;;;;5086072;28;20463;-53
2022/06/22 04:09:55;;;;;;;2.83;1.90;;;11.80;99.90;;;;;;5085670;28;20484;-54
2022/06/22 04:12:26;;;;;;;3.13;2.10;;;11.90;99.90;;;;;;5088159;28;20460;-54
2022/06/22 04:14:57;;;;;;;2.33;2.13;;;11.90;99.90;;;;;;5082782;28;20482;-54
2022/06/22 04:17:29;;;;;;;5.83;1.73;;;12.00;99.90;;;;;;5083838;28;20448;-54
2022/06/22 04:20:02;;;;;;;2.50;1.90;;;12.00;99.90;;;;;;5086484;28;20990;-55
2022/06/22 04:22:32;;;;;;;3.50;1.80;;;12.10;99.90;;;;;;5082057;28;20456;-53
2022/06/22 04:25:02;;;;;;;4.20;1.60;;;12.20;99.90;;;;;;5085691;28;20459;-53
2022/06/22 04:27:35;;;;;;;6.90;3.17;;;12.20;99.90;;;;;;5086781;28;20452;-55
2022/06/22 04:30:06;;;;;;;4.57;1.80;;;12.30;99.90;;;;;;5085398;28;20965;-53
2022/06/22 04:32:38;;;;;;;2.30;1.83;;;12.40;99.90;;;;;;5083962;28;20447;-53
2022/06/22 04:35:26;;;;;;;2.10;1.90;;;12.50;99.90;;;;;;5084777;28;20456;-54
2022/06/22 04:37:56;;;;;;;8.20;2.10;;;12.60;99.90;;;;;;5084925;28;20498;-53
2022/06/22 04:40:29;;;;;;;2.80;1.80;;;12.70;99.90;;;;;;5080509;28;20484;-54
2022/06/22 04:42:58;;;;;;;6.40;1.80;;;12.80;99.90;;;;;;5080320;28;20470;-53
2022/06/22 04:45:30;;;;;;;3.00;1.80;;;12.90;99.90;;;;;;5085349;28;20460;-54
2022/06/22 04:48:02;;;;;;;5.13;1.90;;;13.00;99.90;;;;;;5086948;28;20455;-54
2022/06/22 04:50:30;;;;;;;2.60;1.80;;;13.10;99.90;;;;;;5086151;28;20480;-54
2022/06/22 04:53:02;;;;;;;10.87;1.70;;;13.20;99.90;;;;;;5083458;28;20464;-55
2022/06/22 04:55:29;;;;;;;3.80;1.90;;;13.30;99.90;;;;;;5090127;28;20468;-54
2022/06/22 04:58:00;;;;;;;3.10;2.00;;;13.40;99.90;;;;;;5084648;28;20460;-51
2022/06/22 05:00:31;;;;;;;5.87;1.97;;;13.50;99.90;;;;;;5083715;28;20542;-51
2022/06/22 05:03:01;;;;;;;3.30;2.00;;;13.60;99.90;;;;;;5084465;28;20456;-50
2022/06/22 05:05:32;;;;;;;3.27;2.30;;;13.70;99.90;;;;;;5085617;28;20460;-51
2022/06/22 05:08:04;;;;;;;4.30;2.07;;;13.90;99.90;;;;;;5079208;28;20461;-51
2022/06/22 05:10:40;;;;;;;2.20;2.00;;;14.00;99.90;;;;;;5086126;28;20529;-50
2022/06/22 05:13:14;;;;;;;3.73;2.27;;;14.20;99.90;;;;;;5079914;28;20540;-50
2022/06/22 05:15:42;;;;;;;5.27;1.87;;;14.40;99.90;;;;;;5085058;28;20497;-51
2022/06/22 05:18:13;;;;;;;4.97;2.13;;;14.50;99.90;;;;;;5082658;28;20464;-51
2022/06/22 05:20:46;;;;;;;5.23;2.10;;;14.70;99.90;;;;;;5084858;28;21001;-50
2022/06/22 05:23:14;;;;;;;3.83;2.53;;;14.90;99.90;;;;;;5083275;28;20464;-52
2022/06/22 05:25:44;;;;;;;2.90;2.30;;;15.10;99.90;;;;;;5085007;28;20461;-52
2022/06/22 05:28:16;;;;;;;4.77;2.50;;;15.30;99.90;;;;;;5080671;28;21001;-50
2022/06/22 05:30:46;;;;;;;2.60;1.90;;;15.40;99.90;;;;;;5085989;28;20472;-52
2022/06/22 05:33:15;;;;;;;5.43;2.20;;;15.60;99.90;;;;;;5073860;28;20576;-51
2022/06/22 05:35:48;;;;;;;8.00;3.47;;;15.70;92.40;;;;;;5083509;28;20452;-50
2022/06/22 05:38:18;;;;;;;3.47;2.30;;;15.90;37.80;;;;;;5082075;28;20509;-53
2022/06/22 05:40:46;;;;;;;4.57;2.17;;;16.00;33.00;;;;;;5088179;28;20479;-51
2022/06/22 05:43:13;;;;;;;4.90;3.20;;;16.20;40.80;;;;;;5088724;28;20472;-50
2022/06/22 05:45:45;;;;;;;3.70;2.63;;;16.30;43.30;;;;;;5081373;28;20998;-50
2022/06/22 05:48:15;;;;;;;5.80;2.60;;;16.40;46.10;;;;;;5080198;28;20574;-51
2022/06/22 05:50:50;;;;;;;8.33;2.47;;;16.50;51.60;;;;;;5086161;28;20472;-51
2022/06/22 05:53:22;;;;;;;6.27;2.60;;;16.50;52.70;;;;;;5087311;28;20455;-52
2022/06/22 05:56:08;;;;;;;6.30;2.30;;;16.60;52.90;;;;;;5090646;28;20444;-50
2022/06/22 05:58:42;;;;;;;4.43;2.23;;;16.70;55.90;;;;;;5077975;28;20513;-53
2022/06/22 06:01:18;;;;;;;4.63;3.40;;;16.70;56.50;;;;;;5082975;28;20540;-50
2022/06/22 06:03:50;;;;;;;8.77;4.40;;;16.80;58.60;;;;;;5080393;28;20460;-50
2022/06/22 06:06:24;;;;;;;4.67;3.40;;;16.90;58.70;;;;;;5091407;28;20459;-51
2022/06/22 06:08:56;;;;;;;12.93;5.20;;;17.00;61.70;;;;;;5087963;28;20514;-51
2022/06/22 06:11:27;;;;;;;9.33;3.57;;;17.10;61.50;;;;;;5086771;28;20536;-51
2022/06/22 06:13:59;;;;;;;8.50;4.50;;;17.20;63.90;;;;;;5091149;28;20456;-51
2022/06/22 06:16:30;;;;;;;10.60;4.20;;;17.40;63.00;;;;;;5087222;28;20464;-51
2022/06/22 06:19:01;;;;;;;8.47;4.30;;;17.40;62.80;;;;;;5089387;28;20456;-51
2022/06/22 06:21:38;;;;;;;8.30;4.33;;;17.50;63.70;;;;;;5083135;28;20542;-51
2022/06/22 06:24:11;;;;;;;6.37;3.43;;;17.60;62.90;;;;;;5088167;28;20901;-51
2022/06/22 06:29:32;;;;;;;6.43;4.27;;;17.80;62.30;;;;;;5089642;28;20525;-50
2022/06/22 06:32:06;;;;;;;7.00;4.30;;;17.90;62.30;;;;;;5086808;28;20459;-51
2022/06/22 06:34:38;;;;;;;13.23;6.37;;;18.00;60.90;;;;;;5086112;28;20463;-51
2022/06/22 06:37:17;;;;;;;15.20;6.43;;;18.10;68.50;;;;;;5087393;28;20826;-51
2022/06/22 06:39:48;;;;;;;11.73;5.93;;;18.20;71.10;;;;;;5088163;28;20533;-51
2022/06/22 06:42:25;;;;;;;12.50;6.80;;;18.40;74.70;;;;;;5089333;28;20456;-51
2022/06/22 06:44:54;;;;;;;18.20;7.53;;;18.40;78.30;;;;;;5080843;28;20526;-50
2022/06/22 06:47:26;;;;;;;20.87;6.87;;;18.60;87.20;;;;;;5086881;28;20499;-52
2022/06/22 06:49:57;;;;;;;13.80;6.10;;;18.70;94.50;;;;;;5094067;28;20993;-52
2022/06/22 06:52:35;;;;;;;17.20;6.43;;;18.80;99.90;;;;;;5087334;28;20801;-54
2022/06/22 06:55:05;;;;;;;11.17;6.20;;;18.90;99.90;;;;;;5087699;28;20456;-54
2022/06/22 06:57:34;;;;;;;9.73;5.90;;;19.00;99.90;;;;;;5077910;28;20521;-54
2022/06/22 07:00:06;;;;;;;18.70;5.40;;;19.10;99.90;;;;;;5085440;28;20480;-53
2022/06/22 07:02:37;;;;;;;16.27;5.33;;;19.20;99.90;;;;;;5081465;28;20464;-53
2022/06/22 07:05:08;;;;;;;10.93;4.70;;;19.40;99.90;;;;;;5082406;28;20479;-53
2022/06/22 07:07:42;;;;;;;13.10;5.40;;;19.50;99.90;;;;;;5089725;28;20970;-54
2022/06/22 07:10:13;;;;;;;9.00;4.33;;;19.60;99.90;;;;;;5092742;28;20687;-53
2022/06/22 07:12:45;;;;;;;6.53;3.10;;;19.70;99.90;;;;;;5091763;28;20513;-54
2022/06/22 07:15:18;;;;;;;4.40;2.50;;;19.80;99.90;;;;;;5093956;28;21014;-54
2022/06/22 07:17:46;;;;;;;9.10;3.03;;;19.90;99.90;;;;;;5093358;28;20601;-53
2022/06/22 07:20:18;;;;;;;9.23;3.43;;;20.00;99.90;;;;;;5093642;28;20990;-54
2022/06/22 07:22:51;;;;;;;5.90;3.20;;;20.10;99.90;;;;;;5085912;28;20930;-54
2022/06/22 07:25:23;;;;;;;4.63;2.87;;;20.20;99.90;;;;;;5092339;28;20509;-54
2022/06/22 07:27:55;;;;;;;11.33;1.77;;;20.30;99.90;;;;;;5087698;28;21323;-54
2022/06/22 07:30:29;;;;;;;1.60;1.40;;;20.40;99.90;;;;;;5093822;28;21258;-54
2022/06/22 07:33:02;;;;;;;5.23;1.73;;;20.50;99.90;;;;;;5089757;28;20512;-54
2022/06/22 07:35:37;;;;;;;4.93;1.50;;;20.60;99.90;;;;;;5085452;28;20461;-53
2022/06/22 07:38:15;;;;;;;2.50;1.60;;;20.60;99.90;;;;;;5094091;28;20521;-53
2022/06/22 07:41:18;;;;;;;9.30;2.03;;;20.60;99.90;;;;;;5092219;28;20510;-54
2022/06/22 07:43:31;;;;;;;3.03;1.50;;;20.70;99.90;;;;;;5088669;28;20455;-53
2022/06/22 07:45:57;;;;;;;6.70;2.20;;;20.80;99.90;;;;;;5083246;28;20457;-54
2022/06/22 07:48:26;;;;;;;3.03;1.20;;;21.00;99.90;;;;;;5087579;28;20509;-54
2022/06/22 07:50:57;;;;;;;3.80;1.80;;;21.10;99.90;;;;;;5092443;28;20965;-54
2022/06/22 07:53:33;;;;;;;14.53;2.17;;;21.20;99.90;;;;;;5093701;28;20497;-54
2022/06/22 07:56:04;;;;;;;4.13;2.10;;;21.20;99.90;;;;;;5089193;28;20534;-53
2022/06/22 07:58:35;;;;;;;2.60;1.40;;;21.30;99.90;;;;;;5089840;28;21013;-54
2022/06/22 08:01:06;;;;;;;5.17;2.10;;;21.40;99.90;;;;;;5085402;28;20480;-53
2022/06/22 08:03:36;;;;;;;5.20;1.70;;;21.40;99.90;;;;;;5084152;28;20957;-54
2022/06/22 08:06:09;;;;;;;4.50;1.40;;;21.50;99.90;;;;;;5085381;28;20509;-54
2022/06/22 08:08:41;;;;;;;6.57;1.90;;;21.50;99.90;;;;;;5096829;22;20485;-50
2022/06/22 08:11:12;;;;;;;1.53;1.20;;;21.60;99.90;;;;;;5074372;28;20487;-50
2022/06/22 08:13:45;;;;;;;2.90;1.23;;;21.80;99.90;;;;;;5076356;28;20886;-50
2022/06/22 08:16:17;;;;;;;3.30;1.80;;;21.90;99.90;;;;;;5073683;28;20861;-50
2022/06/22 08:18:45;;;;;;;11.43;2.00;;;21.90;99.90;;;;;;5082203;28;20538;-50
2022/06/22 08:21:15;;;;;;;1.40;1.17;;;21.90;99.90;;;;;;5070256;28;20484;-50
2022/06/22 08:23:44;;;;;;;4.73;1.70;;;22.00;99.90;;;;;;5071952;28;20864;-50
2022/06/22 08:26:17;;;;;;;3.77;1.63;;;22.10;99.90;;;;;;5069521;28;20465;-50
2022/06/22 08:28:43;;;;;;;11.23;2.03;;;22.20;99.90;;;;;;5073119;28;20560;-50
2022/06/22 08:31:10;;;;;;;10.33;1.43;;;22.40;99.90;;;;;;5089805;28;20459;-51
2022/06/22 08:33:40;;;;;;;5.00;1.80;;;22.50;99.90;;;;;;5085202;28;20461;-49
2022/06/22 08:36:11;;;;;;;2.83;1.30;;;22.50;99.90;;;;;;5077861;28;20878;-49
2022/06/22 08:38:42;;;;;;;14.27;1.73;;;22.50;99.90;;;;;;5076608;28;20485;-50
2022/06/22 08:41:22;;;;;;;7.03;1.83;;;22.50;99.90;;;;;;5068377;28;20886;-50
2022/06/22 08:43:55;;;;;;;3.10;1.70;;;22.60;99.90;;;;;;5074799;28;20534;-50
2022/06/22 08:46:55;;;;;;;7.40;1.63;;;22.60;99.90;;;;;;5073205;28;20445;-50
2022/06/22 08:49:48;;;;;;;3.00;1.67;;;22.70;99.90;;;;;;5034519;28;20514;-50
2022/06/22 08:52:29;;;;;;;4.43;1.80;;;22.70;99.90;;;;;;5066774;28;20981;-50
2022/06/22 08:55:05;;;;;;;2.33;1.50;;;22.80;99.90;;;;;;5067674;28;20958;-50
2022/06/22 08:57:47;;;;;;;6.87;2.70;;;23.00;99.90;;;;;;5079751;28;20480;-50
2022/06/22 09:00:19;;;;;;;3.13;1.60;;;23.00;99.90;;;;;;5073892;28;20499;-50
2022/06/22 09:03:18;;;;;;;5.87;1.87;;;23.00;99.90;;;;;;5074496;28;20526;-49
2022/06/22 09:06:05;;;;;;;9.53;2.10;;;23.20;99.90;;;;;;5077650;28;20461;-50
2022/06/22 09:08:56;;;;;;;1.77;1.53;;;23.20;99.90;;;;;;5067197;28;20540;-50
2022/06/22 09:11:31;;;;;;;5.40;1.33;;;23.30;99.90;;;;;;5069814;28;21053;-50
2022/06/22 09:14:35;;;;;;;3.33;1.63;;;23.50;99.90;;;;;;5065088;28;20464;-50
2022/06/22 09:17:20;;;;;;;8.13;1.53;;;23.60;99.90;;;;;;5069198;28;20480;-51
2022/06/22 09:20:01;;;;;;;12.17;2.03;;;23.80;99.90;;;;;;5080701;28;20513;-49
2022/06/22 09:22:45;;;;;;;3.07;1.50;;;23.80;99.90;;;;;;5087505;28;20475;-50
2022/06/22 09:25:24;;;;;;;5.50;1.53;;;23.80;99.90;;;;;;5067937;28;20516;-50
2022/06/22 09:28:01;;;;;;;2.47;1.33;;;23.70;99.90;;;;;;5087096;28;20481;-50
2022/06/22 09:30:48;;;;;;;7.40;1.37;;;23.70;99.90;;;;;;5082593;28;20470;-50
2022/06/22 09:33:35;;;;;;;4.30;1.43;;;23.80;99.90;;;;;;5076214;28;20525;-50
2022/06/22 09:36:26;;;;;;;4.10;1.23;;;23.80;99.90;;;;;;5065413;28;20445;-50
2022/06/22 09:39:28;;;;;;;2.70;1.00;;;23.90;99.90;;;;;;5071493;28;20483;-51
2022/06/22 09:42:14;;;;;;;3.43;1.20;;;24.00;99.90;;;;;;5073412;28;20554;-51
2022/06/22 09:44:57;;;;;;;2.90;1.63;;;24.10;99.90;;;;;;5074158;28;20847;-50
2022/06/22 09:47:41;;;;;;;3.10;1.43;;;24.10;99.90;;;;;;5082741;28;20479;-50
2022/06/22 09:50:56;;;;;;;2.43;1.50;;;24.10;99.90;;;;;;5080511;28;20457;-51
2022/06/22 09:53:50;;;;;;;2.43;1.40;;;24.10;99.90;;;;;;5072695;28;20462;-50
2022/06/22 09:56:41;;;;;;;2.67;1.20;;;24.20;99.90;;;;;;5066199;28;20460;-50
2022/06/22 09:59:29;;;;;;;3.93;1.60;;;24.30;99.90;;;;;;5070906;28;20452;-50
2022/06/22 10:02:12;;;;;;;2.20;1.60;;;24.30;99.90;;;;;;5051118;28;20470;-50
2022/06/22 10:05:18;;;;;;;4.87;1.93;;;24.30;99.90;;;;;;5075355;28;20456;-50
2022/06/22 10:08:00;;;;;;;1.70;1.00;;;24.40;99.90;;;;;;5073140;28;20579;-50
2022/06/22 10:10:41;;;;;;;11.20;1.70;;;24.50;99.90;;;;;;5071329;28;20499;-51
2022/06/22 10:13:28;;;;;;;4.77;1.43;;;24.50;99.90;;;;;;5073669;28;20505;-50
2022/06/22 10:16:07;;;;;;;3.43;2.40;;;24.60;99.90;;;;;;5066262;28;20456;-50
2022/06/22 10:18:52;;;;;;;2.57;1.23;;;24.60;99.90;;;;;;5069787;28;20476;-49
2022/06/22 10:21:35;;;;;;;6.97;1.30;;;24.70;99.90;;;;;;5068361;28;20472;-51
2022/06/22 10:24:18;;;;;;;2.80;1.20;;;24.70;99.90;;;;;;5069942;28;20475;-50
2022/06/22 10:26:59;;;;;;;4.50;1.60;;;24.80;99.90;;;;;;5076168;28;20865;-49
2022/06/22 10:29:51;;;;;;;4.50;1.30;;;24.90;99.90;;;;;;5082583;28;20459;-49
2022/06/22 10:32:45;;;;;;;6.93;1.33;;;25.00;99.90;;;;;;5070451;28;20453;-49
2022/06/22 10:35:27;;;;;;;8.43;1.50;;;25.00;99.90;;;;;;5079211;28;20501;-49
2022/06/22 10:38:21;;;;;;;3.30;1.30;;;25.00;99.90;;;;;;5081854;28;20475;-50
2022/06/22 10:47:08;;;;;;;3.30;1.50;;;25.10;99.90;;;;;;5016688;28;20446;-50
2022/06/22 10:49:51;;;;;;;3.17;1.30;;;25.20;99.90;;;;;;5069190;28;20518;-50
2022/06/22 10:52:37;;;;;;;1.97;0.90;;;25.20;99.90;;;;;;5068123;28;20456;-50
2022/06/22 10:55:25;;;;;;;2.23;1.30;;;25.20;99.90;;;;;;5069774;28;20464;-49
2022/06/22 10:58:07;;;;;;;1.67;1.57;;;25.20;99.90;;;;;;5071722;28;20511;-50
2022/06/22 11:00:45;;;;;;;8.00;1.23;;;25.20;99.90;;;;;;5086947;28;20480;-50
2022/06/22 11:03:39;;;;;;;3.83;1.30;;;25.30;99.90;;;;;;5072388;28;20498;-50
2022/06/22 11:06:39;;;;;;;4.40;1.53;;;25.50;99.90;;;;;;5076385;28;20494;-51
2022/06/22 11:09:17;;;;;;;5.80;1.37;;;25.60;99.90;;;;;;5068624;28;20449;-50
2022/06/22 11:12:20;;;;;;;2.83;1.50;;;25.70;99.90;;;;;;5074608;28;20453;-50
2022/06/22 11:15:42;;;;;;;4.20;1.50;;;25.70;99.90;;;;;;5081851;28;20952;-49
2022/06/22 11:18:36;;;;;;;3.50;1.57;;;25.80;99.90;;;;;;5065084;28;20465;-50
2022/06/22 11:21:14;;;;;;;2.10;0.90;;;25.80;99.90;;;;;;5067072;28;20480;-50
2022/06/22 11:24:06;;;;;;;4.10;1.33;;;25.80;99.90;;;;;;5080770;28;20451;-50
2022/06/22 11:32:53;;;;;;;2.67;0.93;;;25.70;99.90;;;;;;5080097;28;20937;-49
2022/06/22 11:35:44;;;;;;;1.53;1.20;;;25.80;99.90;;;;;;5078739;28;20448;-50
2022/06/22 11:38:38;;;;;;;2.40;1.10;;;25.90;99.90;;;;;;5066648;28;20463;-50
2022/06/22 11:41:21;;;;;;;4.60;1.20;;;26.00;99.90;;;;;;5066951;28;20476;-50
2022/06/22 11:44:07;;;;;;;3.67;1.30;;;26.00;99.90;;;;;;5060870;28;20471;-50
2022/06/22 11:46:41;;;;;;;3.00;1.20;;;26.00;99.90;;;;;;5067968;28;20466;-50
2022/06/22 11:49:41;;;;;;;6.83;1.67;;;26.00;99.90;;;;;;5072255;28;20461;-49
2022/06/22 11:52:49;;;;;;;2.77;1.13;;;26.20;99.90;;;;;;5076501;28;20474;-49
2022/06/22 11:55:25;;;;;;;2.67;1.07;;;26.30;99.90;;;;;;5079425;28;20973;-50
2022/06/22 11:58:22;;;;;;;3.27;2.30;;;26.30;99.90;;;;;;5086139;28;20467;-50
2022/06/22 12:00:59;;;;;;;9.73;1.23;;;26.40;99.90;;;;;;5073678;28;20527;-50
2022/06/22 12:03:50;;;;;;;3.57;1.30;;;26.40;99.90;;;;;;5084645;28;20468;-50
2022/06/22 12:06:34;;;;;;;7.07;1.40;;;26.40;99.90;;;;;;5078390;28;20462;-49
2022/06/22 12:09:10;;;;;;;6.57;1.30;;;26.30;99.90;;;;;;5060538;28;20461;-50
2022/06/22 12:11:51;;;;;;;2.37;1.10;;;26.20;99.90;;;;;;5072741;28;20444;-49
2022/06/22 12:17:28;;;;;;;3.10;1.30;;;26.30;99.90;;;;;;5079286;28;20487;-50
2022/06/22 12:20:17;;;;;;;1.80;1.00;;;26.40;99.90;;;;;;5071237;28;20506;-51
2022/06/22 12:22:57;;;;;;;6.60;1.57;;;26.60;99.90;;;;;;5071463;28;20530;-50
2022/06/22 12:26:08;;;;;;;3.30;1.27;;;26.60;99.90;;;;;;5078503;28;20869;-51
2022/06/22 12:28:49;;;;;;;2.10;1.50;;;26.90;99.90;;;;;;5060245;28;20814;-50
2022/06/22 12:31:18;;;;;;;4.30;1.03;;;26.90;99.90;;;;;;5072036;28;20441;-50
2022/06/22 12:33:51;;;;;;;1.60;1.13;;;27.00;99.90;;;;;;5075980;28;20491;-50
2022/06/22 12:36:25;;;;;;;4.90;1.30;;;26.90;99.90;;;;;;5073236;28;20544;-50
2022/06/22 12:38:56;;;;;;;1.80;1.20;;;27.00;99.90;;;;;;5083811;28;20458;-51
2022/06/22 12:41:36;;;;;;;2.60;1.07;;;27.00;99.90;;;;;;5080632;28;20469;-50
2022/06/22 12:44:27;;;;;;;8.43;1.37;;;27.10;99.90;;;;;;5080675;28;20456;-50
2022/06/22 12:47:12;;;;;;;1.73;1.20;;;27.10;99.90;;;;;;5071718;28;20485;-50
2022/06/22 12:49:52;;;;;;;2.73;1.17;;;26.90;99.90;;;;;;5088832;28;21037;-50
2022/06/22 12:52:25;;;;;;;4.90;1.10;;;26.90;99.90;;;;;;5077100;28;20513;-50
2022/06/22 12:54:56;;;;;;;2.13;1.20;;;26.90;99.90;;;;;;5072886;28;20457;-49
2022/06/22 12:57:26;;;;;;;8.40;1.30;;;26.90;99.90;;;;;;5075738;28;20475;-53
2022/06/22 13:00:00;;;;;;;3.17;1.40;;;26.90;99.90;;;;;;5072110;28;20869;-50
2022/06/22 13:02:30;;;;;;;3.80;0.90;;;26.90;99.90;;;;;;5069172;28;20480;-50
2022/06/22 13:05:01;;;;;;;7.73;1.47;;;27.00;99.90;;;;;;5072494;28;20939;-50
2022/06/22 13:07:33;;;;;;;1.63;1.10;;;26.90;99.90;;;;;;5076339;28;20642;-49
2022/06/22 13:09:59;;;;;;;8.67;1.07;;;26.90;99.90;;;;;;5054794;28;21157;-50
2022/06/22 13:12:33;;;;;;;5.30;1.40;;;27.10;99.90;;;;;;5071518;28;20507;-50
2022/06/22 13:15:06;;;;;;;3.60;1.13;;;27.40;99.90;;;;;;5063965;28;20430;-50
2022/06/22 13:17:40;;;;;;;3.60;1.37;;;27.40;99.90;;;;;;5078417;28;20820;-49
2022/06/22 13:20:34;;;;;;;7.50;1.40;;;27.30;99.90;;;;;;5080554;28;20484;-51
2022/06/22 13:23:06;;;;;;;7.10;1.37;;;27.40;99.90;;;;;;5057542;28;20488;-51
2022/06/22 13:25:40;;;;;;;6.33;1.00;;;27.40;99.90;;;;;;5073793;28;20453;-51
2022/06/22 13:28:17;;;;;;;3.93;2.23;;;27.30;99.90;;;;;;5079955;28;20467;-50
2022/06/22 13:30:48;;;;;;;5.43;1.30;;;27.10;99.90;;;;;;5069302;28;20456;-51
2022/06/22 13:33:18;;;;;;;4.07;1.10;;;27.20;99.90;;;;;;5078319;28;20475;-50
2022/06/22 13:35:49;;;;;;;5.63;1.90;;;27.10;99.90;;;;;;5076943;28;20469;-50
2022/06/22 13:38:33;;;;;;;1.27;0.90;;;27.10;99.90;;;;;;5063916;28;20503;-50
2022/06/22 13:41:18;;;;;;;1.13;0.80;;;27.20;99.90;;;;;;5067937;28;20526;-50
2022/06/22 13:44:03;;;;;;;4.93;1.10;;;27.20;99.90;;;;;;5078293;28;20511;-50
2022/06/22 13:46:44;;;;;;;1.93;1.30;;;27.30;99.90;;;;;;5065305;28;20959;-50
2022/06/22 13:49:15;;;;;;;1.37;0.93;;;27.30;99.90;;;;;;5073245;28;20453;-50
2022/06/22 13:52:01;;;;;;;4.30;1.07;;;27.40;99.90;;;;;;5074825;28;20452;-50
2022/06/22 13:54:55;;;;;;;3.40;1.17;;;27.30;99.90;;;;;;5066073;28;20458;-50
2022/06/22 13:57:32;;;;;;;5.10;1.10;;;27.40;99.90;;;;;;5065060;28;20492;-49
2022/06/22 14:00:04;;;;;;;5.33;1.47;;;27.40;99.90;;;;;;5075179;28;20458;-50